Portada
METAR-TAF:

METAR-TAF

Aeroports :

Bamako, Mali

latitud: 12-32N, longitud: 007-57W, altitud: 380 m

Observació

L'informe es va fer fa 42 minuts, a les 07:30 UTC
Vent 3 kt del Sud/Sud-Oest
Temperatura 22°C
Humitat 78%
Pressió 1014 hPa
Visibilitat 10 km o més
sense núvols per sota de 1500 mi sense presència de cumulonimbus.

METAR: GABS 180730Z 21003KT CAVOK 22/18 Q1014 NOSIG

Hora: 08:12 (08:12 UTC)

Pronòstic

L'informe es va fer fa 2 hores i 52 minuts, a les 05:20 UTC
Pronòstic vàlid del 18 a les 06 UTC al 19 a les 12 UTC
Vent 8 kt del Sud/Sud-Oest
Visibilitat: 8000 m
Escasses núvols a una alçada de 3000 ft
Probabilitat 40% :
Temporalment
l' 18 a les 06 UTC al 18 a les 11 UTC
Visibilitat: 4000 m
calitja
Probabilitat 40% :
Temporalment
l' 18 a les 14 UTC al 18 a les 23 UTC
Escasses núvols a una alçada de 3000 ft
Escasses núvols a una alçada de 4000 ft, Cumulonimbus.
tempesta

TAF: GABS 180520Z 1806/1912 20008KT 8000 FEW030 PROB40 TEMPO 1806/1811 4000 HZ PROB40 TEMPO 1814/1823 TS FEW030 FEW040CB

Observacions i pronòstics meteorològics de més de 4000 aeroports (METAR i TAF).

Les estacions disponibles són els punts grocs i vermells al mapa.

Posi el ratolí al punt desitjat per veure el nom de l'estació.

Feu clic per veure les observacions i els pronòstics meteorològics.

Per canviar el mapa: feu clic els botons verds amb una creu de color negre per apropar; al botó verd amb un guió per allunyar la imatge; o en les fletxes verdes per a mapes adjacents.


METAR-TAF: